Time;durP1;ratioP1;P1;durP2;ratioP2;P2;SDS_P1;SDS_P2;PMS_P1;PMS_P2;Temp;Humidity;BMP_temperature;BMP_pressure;BME280_temperature;BME280_humidity;BME280_pressure;Samples;Min_cycle;Max_cycle;Signal;HPM_P1;HPM_P2
2022/08/30 00:01:56;;;;;;;;;3.00;3.00;;;;;24.24;37.93;101158.34;2092163;28;47565;-62
2022/08/30 00:02:58;;;;;;;;;4.00;4.00;;;;;24.23;37.67;101151.19;2085654;28;47442;-62
2022/08/30 00:04:00;;;;;;;;;4.80;4.20;;;;;24.22;37.83;101150.34;2085942;28;47772;-62
2022/08/30 00:05:01;;;;;;;;;1.20;1.20;;;;;24.21;37.66;101147.75;2096475;28;47473;-62
2022/08/30 00:06:04;;;;;;;;;3.25;3.00;;;;;24.19;37.49;101138.84;2091637;28;47441;-62
2022/08/30 00:07:05;;;;;;;;;2.20;2.20;;;;;24.18;37.44;101139.84;2093679;28;47860;-63
2022/08/30 00:08:06;;;;;;;;;4.25;4.25;;;;;24.16;37.76;101139.94;2091194;28;47618;-62
2022/08/30 00:09:06;;;;;;;;;5.00;3.80;;;;;24.14;37.62;101144.63;2093992;28;47615;-63
2022/08/30 00:10:07;;;;;;;;;5.00;5.00;;;;;24.14;37.86;101146.44;2095325;28;47723;-63
2022/08/30 00:11:10;;;;;;;;;3.20;3.20;;;;;24.13;37.91;101142.84;2095448;28;48085;-63
2022/08/30 00:12:10;;;;;;;;;4.00;3.20;;;;;24.13;37.85;101144.69;2095328;28;47900;-63
2022/08/30 00:13:12;;;;;;;;;4.00;4.00;;;;;24.13;37.79;101151.00;2095167;28;47543;-63
2022/08/30 00:14:12;;;;;;;;;2.20;2.20;;;;;24.11;37.46;101147.53;2095450;28;47834;-62
2022/08/30 00:15:14;;;;;;;;;2.00;2.00;;;;;24.11;37.61;101149.38;2104976;28;47437;-62
2022/08/30 00:16:15;;;;;;;;;3.00;3.00;;;;;24.10;37.68;101153.94;2104357;27;48393;-62
2022/08/30 00:17:16;;;;;;;;;3.20;2.20;;;;;24.10;37.90;101162.06;2106167;27;47569;-62
2022/08/30 00:18:17;;;;;;;;;5.80;4.00;;;;;24.10;38.01;101167.47;2104860;27;47968;-62
2022/08/30 00:19:18;;;;;;;;;2.80;2.80;;;;;24.10;38.13;101166.63;2106151;27;47621;-63
2022/08/30 00:20:25;;;;;;;;;4.00;4.00;;;;;24.10;37.88;101169.31;2105966;27;47387;-62
2022/08/30 00:21:26;;;;;;;;;4.20;4.20;;;;;24.09;37.92;101168.47;2106912;27;48855;-63
2022/08/30 00:22:26;;;;;;;;;3.25;2.00;;;;;24.09;37.62;101171.19;2108496;27;46454;-63
2022/08/30 00:23:26;;;;;;;;;3.50;3.50;;;;;24.07;37.69;101175.84;2105364;27;47323;-62
2022/08/30 00:24:27;;;;;;;;;1.50;1.50;;;;;24.08;37.69;101174.88;2105581;27;47395;-63
2022/08/30 00:25:28;;;;;;;;;2.00;2.00;;;;;24.06;37.84;101174.09;2102909;27;47189;-63
2022/08/30 00:26:28;;;;;;;;;3.50;2.75;;;;;24.04;37.82;101174.22;2103189;27;47304;-62
2022/08/30 00:27:29;;;;;;;;;4.00;2.00;;;;;24.04;37.72;101173.34;2105085;27;47524;-63
2022/08/30 00:28:31;;;;;;;;;3.00;3.00;;;;;24.01;37.72;101166.31;2098778;27;47408;-63
2022/08/30 00:29:31;;;;;;;;;4.00;4.00;;;;;24.00;37.84;101167.25;2101567;27;47610;-62
2022/08/30 00:30:32;;;;;;;;;2.75;2.75;;;;;23.98;37.91;101171.06;2102967;27;47466;-63
2022/08/30 00:31:32;;;;;;;;;3.00;3.00;;;;;23.97;37.91;101166.63;2104170;27;47283;-62
2022/08/30 00:32:32;;;;;;;;;2.00;2.00;;;;;23.97;38.03;101166.63;2104419;27;47449;-62
2022/08/30 00:33:33;;;;;;;;;4.50;4.00;;;;;23.97;37.81;101161.19;2086663;28;47481;-63
2022/08/30 00:34:33;;;;;;;;;4.25;3.50;;;;;23.95;38.08;101161.31;2080276;28;47610;-62
2022/08/30 00:35:34;;;;;;;;;4.00;4.00;;;;;23.96;37.87;101156.75;2104101;27;47397;-63
2022/08/30 00:36:34;;;;;;;;;2.50;2.00;;;;;23.95;38.10;101155.88;2104500;27;47272;-63
2022/08/30 00:37:35;;;;;;;;;3.25;3.25;;;;;23.93;37.70;101155.13;2109246;27;47521;-62
2022/08/30 00:38:36;;;;;;;;;3.00;2.00;;;;;23.92;37.96;101156.13;2106912;27;47757;-63
2022/08/30 00:39:36;;;;;;;;;6.75;3.25;;;;;23.92;38.06;101152.53;2104380;27;47466;-63
2022/08/30 00:40:37;;;;;;;;;4.00;4.00;;;;;23.91;38.17;101150.81;2104485;27;47474;-63
2022/08/30 00:41:38;;;;;;;;;2.00;2.00;;;;;23.91;37.99;101150.81;2104638;27;46558;-62
2022/08/30 00:42:38;;;;;;;;;3.00;3.00;;;;;23.91;37.99;101153.50;2099907;27;47889;-63
2022/08/30 00:43:39;;;;;;;;;2.75;2.75;;;;;23.90;38.16;101151.78;2104045;27;47588;-63
2022/08/30 00:44:41;;;;;;;;;2.75;2.75;;;;;23.90;38.10;101152.66;2104395;27;47886;-63
2022/08/30 00:45:41;;;;;;;;;3.40;3.40;;;;;23.90;38.26;101144.50;2093760;28;46238;-63
2022/08/30 00:46:42;;;;;;;;;2.00;1.25;;;;;23.90;37.82;101144.50;2095723;28;48263;-62
2022/08/30 00:47:42;;;;;;;;;3.25;3.25;;;;;23.90;38.11;101139.09;2104439;27;45688;-62
2022/08/30 00:48:46;;;;;;;;;9.25;5.00;;;;;23.90;38.09;101147.22;2096018;28;47374;-63
2022/08/30 00:49:53;;;;;;;;;4.00;4.00;;;;;23.90;38.24;101139.09;2087630;28;47636;-62
2022/08/30 00:50:59;;;;;;;;;2.20;1.20;;;;;23.89;38.09;101140.06;2096421;28;48080;-61
2022/08/30 00:52:02;;;;;;;;;4.20;4.20;;;;;23.91;38.39;101142.66;2104717;27;48231;-62
2022/08/30 00:53:05;;;;;;;;;5.00;3.40;;;;;23.92;38.13;101144.41;2104422;27;47768;-61
2022/08/30 00:54:06;;;;;;;;;2.80;2.00;;;;;23.91;38.19;101146.25;2103160;27;47566;-62
2022/08/30 00:55:08;;;;;;;;;4.40;4.40;;;;;23.92;38.10;101144.41;2105497;27;47767;-63
2022/08/30 00:56:09;;;;;;;;;3.00;3.00;;;;;23.91;37.95;101142.66;2109705;27;47330;-63
2022/08/30 00:57:12;;;;;;;;;3.40;3.40;;;;;23.91;38.06;101146.25;2105147;27;47630;-62
2022/08/30 00:58:20;;;;;;;;;3.40;3.00;;;;;23.91;38.19;101139.97;2103936;27;47844;-63
2022/08/30 00:59:23;;;;;;;;;4.00;4.00;;;;;23.90;38.26;101147.22;2104577;27;47259;-63
2022/08/30 01:00:24;;;;;;;;;4.00;4.00;;;;;23.90;38.34;101147.22;2104717;27;47765;-63
2022/08/30 01:01:26;;;;;;;;;3.40;2.20;;;;;23.89;38.09;101139.22;2104833;27;47231;-62
2022/08/30 01:02:32;;;;;;;;;3.80;3.80;;;;;23.88;38.18;101142.88;2104552;27;47747;-62
2022/08/30 01:03:33;;;;;;;;;3.20;3.20;;;;;23.87;38.36;101141.13;2102917;27;48141;-62
2022/08/30 01:04:36;;;;;;;;;3.00;3.00;;;;;23.84;38.28;101144.94;2105244;27;47738;-62
2022/08/30 01:05:37;;;;;;;;;3.40;3.40;;;;;23.84;38.35;101144.06;2103769;27;47728;-63
2022/08/30 01:06:38;;;;;;;;;3.60;3.00;;;;;23.83;38.34;101150.47;2104917;27;46944;-63
2022/08/30 01:07:40;;;;;;;;;2.00;0.80;;;;;23.82;38.35;101140.59;2104873;27;47860;-63
2022/08/30 01:08:42;;;;;;;;;0.00;0.00;;;;;23.81;38.37;101144.28;2103377;27;47722;-62
2022/08/30 01:09:43;;;;;;;;;6.00;3.80;;;;;23.81;38.25;101152.41;2098369;27;47801;-62
2022/08/30 01:10:43;;;;;;;;;4.20;4.00;;;;;23.80;38.38;101140.72;2101315;28;48319;-63
2022/08/30 01:11:45;;;;;;;;;2.50;2.50;;;;;23.80;38.58;101145.25;2105925;27;47473;-63
2022/08/30 01:12:46;;;;;;;;;4.20;2.60;;;;;23.78;38.34;101140.81;2103960;27;47487;-63
2022/08/30 01:13:49;;;;;;;;;3.50;3.50;;;;;23.77;38.52;101149.94;2102788;28;47320;-62
2022/08/30 01:14:49;;;;;;;;;3.00;3.00;;;;;23.76;38.52;101150.03;2109683;27;47656;-63
2022/08/30 01:15:50;;;;;;;;;1.00;1.00;;;;;23.74;38.55;101150.13;2108725;27;47946;-63
2022/08/30 01:16:51;;;;;;;;;4.00;3.75;;;;;23.73;38.52;101152.94;2086956;28;48034;-62
2022/08/30 01:17:52;;;;;;;;;4.40;3.60;;;;;23.74;38.59;101150.13;2084976;28;47530;-62
2022/08/30 01:18:56;;;;;;;;;7.00;4.50;;;;;23.74;38.61;101150.13;2100364;28;47988;-62
2022/08/30 01:20:00;;;;;;;;;3.80;2.40;;;;;23.73;38.61;101147.53;2102289;27;47542;-62
2022/08/30 01:21:07;;;;;;;;;3.00;3.00;;;;;23.74;38.40;101147.41;2102185;27;47790;-62
2022/08/30 01:22:20;;;;;;;;;4.20;3.40;;;;;23.74;38.45;101151.97;2100018;28;47463;-63
2022/08/30 01:23:23;;;;;;;;;4.40;4.40;;;;;23.73;38.33;101148.38;2103416;27;47999;-62
2022/08/30 01:24:24;;;;;;;;;5.20;4.40;;;;;23.73;38.57;101156.53;2103651;27;47524;-63
2022/08/30 01:25:29;;;;;;;;;3.75;3.75;;;;;23.73;38.45;101155.66;2095773;28;47045;-63
2022/08/30 01:26:30;;;;;;;;;7.40;5.20;;;;;23.72;38.51;101156.63;2096346;28;47425;-62
2022/08/30 01:27:31;;;;;;;;;3.60;2.80;;;;;23.72;38.56;101162.06;2101247;27;47435;-62
2022/08/30 01:28:33;;;;;;;;;4.00;4.00;;;;;23.70;38.61;101161.28;2099482;27;47339;-63
2022/08/30 01:29:34;;;;;;;;;5.00;2.80;;;;;23.69;38.27;101157.72;2111994;27;47531;-62
2022/08/30 01:30:37;;;;;;;;;3.50;3.50;;;;;23.69;38.80;101160.44;2098990;27;47189;-62
2022/08/30 01:31:38;;;;;;;;;4.00;4.00;;;;;23.69;38.52;101163.13;2098433;28;47876;-62
2022/08/30 01:32:43;;;;;;;;;2.25;2.00;;;;;23.71;38.28;101158.47;2108211;27;48029;-62
2022/08/30 01:33:43;;;;;;;;;5.60;5.60;;;;;23.73;38.41;101161.06;2098992;27;47583;-62
2022/08/30 01:34:48;;;;;;;;;6.00;5.00;;;;;23.73;38.69;101161.06;2104231;28;47637;-62
2022/08/30 01:36:01;;;;;;;;;3.40;3.00;;;;;23.73;38.34;101161.06;2107507;27;47767;-62
2022/08/30 01:37:01;;;;;;;;;3.00;3.00;;;;;23.75;38.88;101157.28;2098049;27;47977;-62
2022/08/30 01:38:01;;;;;;;;;4.25;4.25;;;;;23.74;38.68;101158.25;2108147;27;48440;-63
2022/08/30 01:39:02;;;;;;;;;3.00;3.00;;;;;23.72;38.41;101157.50;2102545;27;47636;-62
2022/08/30 01:40:03;;;;;;;;;2.25;2.25;;;;;23.72;38.68;101167.47;2107049;27;47115;-62
2022/08/30 01:41:17;;;;;;;;;5.40;3.80;;;;;23.72;38.58;101171.03;2108769;27;48302;-62
2022/08/30 01:42:17;;;;;;;;;2.80;2.80;;;;;23.71;38.65;101166.59;2104333;27;47951;-61
2022/08/30 01:43:18;;;;;;;;;3.75;3.25;;;;;23.72;38.32;101181.88;2091687;28;47756;-62
2022/08/30 01:44:18;;;;;;;;;3.25;3.00;;;;;23.71;38.83;101177.44;2094401;28;47812;-62
2022/08/30 01:45:19;;;;;;;;;4.50;4.50;;;;;23.71;38.61;101177.44;2099226;27;47540;-63
2022/08/30 01:46:23;;;;;;;;;5.75;5.00;;;;;23.71;38.81;101185.56;2097483;28;45989;-61
2022/08/30 01:47:23;;;;;;;;;4.00;4.00;;;;;23.72;38.96;101189.16;2103522;27;47802;-62
2022/08/30 01:48:24;;;;;;;;;3.50;3.50;;;;;23.71;38.81;101191.00;2081847;28;47627;-62
2022/08/30 01:49:24;;;;;;;;;2.25;2.25;;;;;23.71;38.75;101193.69;2086978;28;47951;-62
2022/08/30 01:50:25;;;;;;;;;3.00;3.00;;;;;23.72;38.60;101195.44;2103257;27;47357;-62
2022/08/30 01:51:26;;;;;;;;;5.25;4.75;;;;;23.74;38.68;101200.75;2098527;27;47981;-62
2022/08/30 01:52:27;;;;;;;;;3.20;3.20;;;;;23.74;38.41;101193.47;2106789;27;47570;-62
2022/08/30 01:53:28;;;;;;;;;5.50;2.75;;;;;23.73;38.67;101199.00;2101599;27;47904;-62
2022/08/30 01:54:30;;;;;;;;;4.25;4.25;;;;;23.72;38.61;101191.84;2105532;27;47155;-63
2022/08/30 01:55:31;;;;;;;;;2.20;2.20;;;;;23.71;38.74;101188.28;2110766;27;47920;-62
2022/08/30 01:56:31;;;;;;;;;3.50;3.50;;;;;23.70;38.84;101189.25;2098970;28;47283;-62
2022/08/30 01:57:32;;;;;;;;;5.50;4.75;;;;;23.70;38.68;101200.09;2095867;28;46614;-61
2022/08/30 01:58:34;;;;;;;;;6.25;5.25;;;;;23.69;38.79;101187.53;2106304;27;47413;-63
2022/08/30 01:59:36;;;;;;;;;3.00;3.00;;;;;23.70;38.87;101191.97;2106013;27;47539;-62
2022/08/30 02:00:37;;;;;;;;;3.40;3.40;;;;;23.69;38.76;101187.53;2106358;27;47645;-61
2022/08/30 02:01:38;;;;;;;;;5.00;5.00;;;;;23.70;38.64;101185.69;2097365;28;47659;-61
2022/08/30 02:02:38;;;;;;;;;3.75;3.50;;;;;23.70;38.77;101185.69;2096499;28;48065;-62
2022/08/30 02:03:41;;;;;;;;;2.00;2.00;;;;;23.69;38.69;101183.94;2106738;27;47710;-61
2022/08/30 02:04:42;;;;;;;;;3.00;3.00;;;;;23.69;38.71;101175.81;2109943;27;47924;-63
2022/08/30 02:05:43;;;;;;;;;3.20;3.20;;;;;23.69;38.78;101176.69;2096816;28;47707;-62
2022/08/30 02:06:43;;;;;;;;;3.00;3.00;;;;;23.69;38.62;101176.69;2098109;28;47554;-62
2022/08/30 02:07:43;;;;;;;;;3.75;3.75;;;;;23.70;38.78;101183.84;2106687;27;47873;-62
2022/08/30 02:08:45;;;;;;;;;4.00;4.00;;;;;23.70;38.63;101186.53;2105649;27;47555;-63
2022/08/30 02:09:45;;;;;;;;;5.00;4.40;;;;;23.70;38.73;101178.41;2107054;27;47478;-62
2022/08/30 02:10:46;;;;;;;;;4.25;4.25;;;;;23.70;38.65;101178.41;2095755;28;47405;-62
2022/08/30 02:11:47;;;;;;;;;3.50;2.00;;;;;23.69;38.56;101182.09;2097856;28;47328;-62
2022/08/30 02:12:47;;;;;;;;;3.40;3.40;;;;;23.69;38.68;101190.22;2088580;28;48257;-62
2022/08/30 02:13:48;;;;;;;;;3.50;2.75;;;;;23.68;38.70;101185.78;2087651;28;47646;-61
2022/08/30 02:14:48;;;;;;;;;5.50;5.50;;;;;23.67;38.73;101186.75;2107176;27;47925;-62
2022/08/30 02:15:49;;;;;;;;;6.00;4.75;;;;;23.67;38.73;101188.63;2107021;27;47927;-61
2022/08/30 02:16:49;;;;;;;;;4.00;3.00;;;;;23.68;38.56;101182.22;2105651;27;47339;-63
2022/08/30 02:17:50;;;;;;;;;5.25;5.25;;;;;23.68;38.65;101183.09;2104483;27;47600;-62
2022/08/30 02:18:52;;;;;;;;;4.25;3.50;;;;;23.67;38.79;101185.91;2105344;27;47134;-63
2022/08/30 02:19:52;;;;;;;;;2.20;2.20;;;;;23.67;38.65;101189.47;2087174;28;47510;-62
2022/08/30 02:20:53;;;;;;;;;5.00;4.00;;;;;23.67;38.75;101191.31;2091913;28;47447;-63
2022/08/30 02:21:54;;;;;;;;;2.25;2.25;;;;;23.66;38.68;101192.28;2105425;27;47887;-63
2022/08/30 02:22:54;;;;;;;;;4.00;4.00;;;;;23.64;38.90;101187.00;2106424;27;47256;-62
2022/08/30 02:23:55;;;;;;;;;3.75;3.75;;;;;23.64;38.78;101192.41;2106575;27;47426;-62
2022/08/30 02:24:55;;;;;;;;;5.50;5.50;;;;;23.64;39.02;101194.25;2096753;28;47258;-62
2022/08/30 02:25:55;;;;;;;;;4.75;4.75;;;;;23.63;38.97;101189.78;2098286;28;47693;-62
2022/08/30 02:26:56;;;;;;;;;3.50;3.50;;;;;23.63;39.28;101196.09;2105477;27;47731;-62
2022/08/30 02:27:56;;;;;;;;;4.00;4.00;;;;;23.63;38.69;101203.31;2101224;27;47576;-62
2022/08/30 02:28:58;;;;;;;;;4.75;3.50;;;;;23.61;38.95;101189.88;2106005;27;47530;-62
2022/08/30 02:29:59;;;;;;;;;6.80;4.80;;;;;23.61;38.62;101200.72;2111626;27;47550;-62
2022/08/30 02:31:00;;;;;;;;;5.50;3.25;;;;;23.61;38.95;101202.56;2106617;27;46592;-63
2022/08/30 02:32:01;;;;;;;;;2.00;2.00;;;;;23.61;39.06;101205.28;2099980;27;48225;-62
2022/08/30 02:33:01;;;;;;;;;5.25;4.00;;;;;23.60;38.83;101198.97;2104216;27;47962;-62
2022/08/30 02:34:03;;;;;;;;;3.00;3.00;;;;;23.59;39.06;101197.25;2099936;27;47526;-62
2022/08/30 02:35:04;;;;;;;;;5.80;3.60;;;;;23.58;38.70;101194.66;2100654;28;47446;-63
2022/08/30 02:36:05;;;;;;;;;6.25;5.00;;;;;23.57;38.90;101195.59;2099502;27;47804;-62
2022/08/30 02:37:06;;;;;;;;;6.00;6.00;;;;;23.56;38.86;101200.16;2102049;27;47815;-62
2022/08/30 02:38:07;;;;;;;;;3.00;3.00;;;;;23.55;39.18;101195.69;2101230;27;47591;-62
2022/08/30 02:39:09;;;;;;;;;6.75;5.75;;;;;23.53;38.82;101194.94;2102969;27;47798;-63
2022/08/30 02:40:10;;;;;;;;;4.00;4.00;;;;;23.52;38.94;101187.78;2105197;27;47808;-62
2022/08/30 02:41:10;;;;;;;;;6.00;5.00;;;;;23.50;39.16;101195.13;2100981;27;47682;-63
2022/08/30 02:42:11;;;;;;;;;2.50;2.50;;;;;23.48;39.03;101187.09;2105348;27;47461;-62
2022/08/30 02:43:11;;;;;;;;;5.00;5.00;;;;;23.48;39.02;101199.78;2098386;28;47460;-62
2022/08/30 02:44:12;;;;;;;;;4.50;3.75;;;;;23.49;38.86;101196.09;2107068;27;47683;-62
2022/08/30 02:45:12;;;;;;;;;5.00;4.50;;;;;23.47;39.09;101182.66;2106259;27;48006;-62
2022/08/30 02:46:13;;;;;;;;;4.00;3.00;;;;;23.48;38.98;101194.38;2098073;27;47976;-63
2022/08/30 02:47:13;;;;;;;;;3.00;3.00;;;;;23.47;38.87;101188.09;2107546;27;47952;-62
2022/08/30 02:48:14;;;;;;;;;3.50;3.00;;;;;23.47;38.97;101185.38;2101712;28;48007;-62
2022/08/30 02:49:14;;;;;;;;;3.00;3.00;;;;;23.45;39.24;101187.31;2107145;27;47652;-62
2022/08/30 02:50:15;;;;;;;;;4.00;4.00;;;;;23.43;38.96;101183.84;2108209;27;47525;-62
2022/08/30 02:51:16;;;;;;;;;4.00;4.00;;;;;23.44;39.17;101190.16;2111815;27;47464;-62
2022/08/30 02:52:16;;;;;;;;;2.75;2.75;;;;;23.43;38.77;101191.13;2107564;27;47648;-62
2022/08/30 02:53:17;;;;;;;;;5.25;4.00;;;;;23.41;39.47;101185.81;2102341;27;47487;-62
2022/08/30 02:54:18;;;;;;;;;4.40;4.40;;;;;23.40;39.05;101178.66;2095946;28;47701;-62
2022/08/30 02:55:19;;;;;;;;;4.60;4.60;;;;;23.40;39.34;101175.94;2094690;28;48247;-63
2022/08/30 02:56:19;;;;;;;;;5.00;5.00;;;;;23.40;39.40;101184.06;2105069;28;47528;-62
2022/08/30 02:57:20;;;;;;;;;3.00;3.00;;;;;23.42;39.06;101178.56;2089287;28;46292;-63
2022/08/30 02:58:20;;;;;;;;;6.50;5.25;;;;;23.42;39.30;101176.72;2088938;28;47877;-62
2022/08/30 02:59:20;;;;;;;;;5.75;5.75;;;;;23.40;39.36;101175.94;2105242;28;47624;-62
2022/08/30 03:00:21;;;;;;;;;4.00;3.00;;;;;23.42;39.11;101179.41;2107393;27;47589;-62
2022/08/30 03:01:21;;;;;;;;;4.50;4.50;;;;;23.40;39.15;101173.25;2105524;27;47976;-63
2022/08/30 03:02:22;;;;;;;;;6.25;4.25;;;;;23.42;39.06;101183.97;2105990;27;47850;-62
2022/08/30 03:03:22;;;;;;;;;5.00;4.00;;;;;23.42;38.92;101192.09;2106598;27;46305;-61
2022/08/30 03:04:23;;;;;;;;;4.00;3.25;;;;;23.42;39.26;101192.09;2093845;28;47466;-62
2022/08/30 03:05:23;;;;;;;;;5.00;5.00;;;;;23.42;39.04;101186.69;2091149;28;47558;-63
2022/08/30 03:06:24;;;;;;;;;2.00;2.00;;;;;23.39;39.04;101198.59;2102992;27;47795;-63
2022/08/30 03:07:24;;;;;;;;;5.75;5.00;;;;;23.40;39.47;101191.34;2113667;27;47096;-62
2022/08/30 03:08:24;;;;;;;;;4.00;4.00;;;;;23.39;39.36;101197.72;2108382;27;47638;-63
2022/08/30 03:09:25;;;;;;;;;3.75;3.25;;;;;23.38;38.99;101204.97;2106573;27;47668;-63
2022/08/30 03:10:27;;;;;;;;;5.50;4.50;;;;;23.38;39.67;101202.28;2105971;27;47464;-63
2022/08/30 03:11:28;;;;;;;;;3.80;3.00;;;;;23.41;39.20;101217.44;2106566;27;47707;-62
2022/08/30 03:12:28;;;;;;;;;3.75;3.25;;;;;23.40;39.50;101213.00;2104294;27;47686;-62
2022/08/30 03:13:29;;;;;;;;;2.50;2.50;;;;;23.40;39.34;101215.72;2106042;27;47506;-62
2022/08/30 03:14:30;;;;;;;;;3.80;3.80;;;;;23.40;39.34;101216.56;2107311;27;47770;-63
2022/08/30 03:15:33;;;;;;;;;2.20;2.20;;;;;23.41;39.48;101210.19;2095177;28;47713;-63
2022/08/30 03:16:34;;;;;;;;;4.00;4.00;;;;;23.40;38.91;101208.47;2098386;28;47659;-62
2022/08/30 03:17:34;;;;;;;;;5.50;5.50;;;;;23.38;39.27;101206.81;2106670;27;47615;-62
2022/08/30 03:18:35;;;;;;;;;3.50;2.50;;;;;23.39;39.73;101214.84;2087298;28;47578;-62
2022/08/30 03:19:36;;;;;;;;;3.50;3.50;;;;;23.37;39.51;101207.78;2088712;28;48134;-63
2022/08/30 03:20:36;;;;;;;;;5.00;3.00;;;;;23.37;39.88;101202.34;2098979;27;47161;-62
2022/08/30 03:21:37;;;;;;;;;4.00;4.00;;;;;23.35;39.67;101207.88;2099673;27;47603;-62
2022/08/30 03:22:38;;;;;;;;;3.00;3.00;;;;;23.35;40.11;101210.59;2103927;27;47120;-62
2022/08/30 03:23:39;;;;;;;;;3.20;3.20;;;;;23.33;40.29;101200.84;2095987;28;47202;-62
2022/08/30 03:24:40;;;;;;;;;4.40;4.40;;;;;23.33;40.40;101208.97;2097954;28;47558;-63
2022/08/30 03:25:40;;;;;;;;;6.25;4.25;;;;;23.31;40.26;101214.47;2107082;27;47511;-62
2022/08/30 03:26:41;;;;;;;;;6.25;5.00;;;;;23.29;40.74;101208.31;2105063;28;47461;-63
2022/08/30 03:27:41;;;;;;;;;4.00;4.00;;;;;23.29;41.24;101202.88;2103800;27;47068;-62
2022/08/30 03:28:42;;;;;;;;;5.75;5.75;;;;;23.31;41.69;101200.94;2098454;27;46263;-63
2022/08/30 03:29:43;;;;;;;;;5.80;5.20;;;;;23.29;42.15;101200.19;2111386;27;47789;-63
2022/08/30 03:30:43;;;;;;;;;5.75;4.50;;;;;23.27;42.35;101203.97;2105470;27;47884;-63
2022/08/30 03:31:43;;;;;;;;;5.00;5.00;;;;;23.23;42.55;101199.72;2086829;28;46122;-62
2022/08/30 03:32:44;;;;;;;;;6.00;6.00;;;;;23.20;42.46;101206.19;2083875;28;47904;-62
2022/08/30 03:33:45;;;;;;;;;6.40;5.00;;;;;23.16;43.29;101200.13;2086971;28;47588;-63
2022/08/30 03:34:45;;;;;;;;;4.50;4.50;;;;;23.16;43.54;101197.41;2094942;28;46358;-63
2022/08/30 03:35:48;;;;;;;;;9.75;6.75;;;;;23.13;43.37;101196.78;2091511;28;47278;-62
2022/08/30 03:36:51;;;;;;;;;6.80;5.40;;;;;23.11;44.26;101195.97;2093526;28;46763;-62
2022/08/30 03:37:52;;;;;;;;;5.20;4.40;;;;;23.09;43.88;101197.91;2094250;28;47532;-62
2022/08/30 03:38:52;;;;;;;;;6.00;6.00;;;;;23.07;44.83;101200.72;2091775;28;47959;-63
2022/08/30 03:39:54;;;;;;;;;5.00;5.00;;;;;23.02;45.00;101205.59;2094325;28;46818;-61
2022/08/30 03:40:54;;;;;;;;;4.00;4.00;;;;;22.96;45.82;101199.69;2087202;28;47472;-62
2022/08/30 03:41:54;;;;;;;;;6.75;4.25;;;;;22.91;45.39;101197.31;2086427;28;47739;-62
2022/08/30 03:42:55;;;;;;;;;6.00;6.00;;;;;22.87;46.06;101188.53;2088701;28;47994;-62
2022/08/30 03:43:55;;;;;;;;;6.25;6.25;;;;;22.84;45.94;101179.72;2085581;28;47479;-63
2022/08/30 03:44:55;;;;;;;;;5.00;5.00;;;;;22.81;45.79;101166.38;2078631;28;47488;-62
2022/08/30 03:45:56;;;;;;;;;7.25;7.00;;;;;22.83;45.80;101161.75;2088539;28;47948;-62
2022/08/30 03:46:56;;;;;;;;;4.00;4.00;;;;;22.83;45.96;101148.22;2084737;28;47747;-62
2022/08/30 03:47:57;;;;;;;;;5.50;5.50;;;;;22.81;45.84;101142.00;2079173;28;47139;-62
2022/08/30 03:48:57;;;;;;;;;9.25;7.75;;;;;22.80;46.05;101135.72;2083886;28;47284;-60
2022/08/30 03:49:58;;;;;;;;;6.00;4.75;;;;;22.78;46.17;101125.97;2083297;28;47033;-62
2022/08/30 03:50:59;;;;;;;;;5.40;4.40;;;;;22.77;45.99;101126.97;2087229;28;48092;-62
2022/08/30 03:51:59;;;;;;;;;5.50;5.50;;;;;22.74;46.22;101124.44;2078581;28;47625;-63
2022/08/30 03:53:00;;;;;;;;;7.00;6.50;;;;;22.71;46.40;101117.38;2078781;28;47443;-62
2022/08/30 03:54:01;;;;;;;;;6.00;6.00;;;;;22.69;47.27;101118.47;2088039;28;47412;-62
2022/08/30 03:55:03;;;;;;;;;10.20;7.60;;;;;22.66;46.83;101111.44;2074346;28;47388;-61
2022/08/30 03:56:04;;;;;;;;;5.60;5.60;;;;;22.63;46.51;101116.19;2079036;28;47600;-63
2022/08/30 03:57:05;;;;;;;;;5.00;5.00;;;;;22.61;46.23;101121.66;2086994;28;47370;-62
2022/08/30 03:58:05;;;;;;;;;5.25;5.25;;;;;22.60;46.71;101120.78;2086635;28;45682;-62
2022/08/30 03:59:05;;;;;;;;;4.50;4.50;;;;;22.59;46.31;101123.59;2086999;28;47565;-62
2022/08/30 04:00:07;;;;;;;;;6.00;6.00;;;;;22.59;46.51;101120.91;2086986;28;47384;-62
2022/08/30 04:01:08;;;;;;;;;9.40;9.40;;;;;22.57;46.40;101122.84;2078557;28;47839;-63
2022/08/30 04:02:08;;;;;;;;;5.75;5.75;;;;;22.56;46.60;101121.97;2078523;28;47998;-62
2022/08/30 04:03:08;;;;;;;;;7.50;7.50;;;;;22.55;46.85;101122.94;2091503;27;47577;-62
2022/08/30 04:04:09;;;;;;;;;5.75;5.75;;;;;22.55;46.84;101111.25;2104951;27;47829;-62
2022/08/30 04:05:10;;;;;;;;;5.00;5.00;;;;;22.56;46.96;101111.16;2108370;27;46946;-62
2022/08/30 04:06:11;;;;;;;;;8.00;8.00;;;;;22.57;47.06;101106.63;2112873;27;47640;-62
2022/08/30 04:07:11;;;;;;;;;10.00;7.00;;;;;22.57;47.25;101106.63;2105661;27;47388;-62
2022/08/30 04:08:11;;;;;;;;;4.50;4.50;;;;;22.57;47.26;101103.91;2105175;27;47647;-62
2022/08/30 04:09:12;;;;;;;;;7.00;5.50;;;;;22.56;47.20;101096.75;2105001;28;47270;-62
2022/08/30 04:10:12;;;;;;;;;5.00;5.00;;;;;22.56;47.26;101107.59;2103527;27;47409;-64
2022/08/30 04:11:15;;;;;;;;;5.50;5.50;;;;;22.56;47.47;101107.59;2105686;27;47513;-62
2022/08/30 04:12:15;;;;;;;;;5.40;5.40;;;;;22.55;46.95;101106.72;2104580;27;47753;-62
2022/08/30 04:13:16;;;;;;;;;5.25;5.25;;;;;22.55;46.89;101105.84;2104411;27;47501;-61
2022/08/30 04:14:16;;;;;;;;;5.00;4.75;;;;;22.55;47.36;101108.56;2104623;27;47504;-61
2022/08/30 04:15:18;;;;;;;;;7.00;7.00;;;;;22.55;47.43;101108.56;2104492;27;47336;-61
2022/08/30 04:16:19;;;;;;;;;7.60;5.60;;;;;22.56;46.79;101110.28;2105587;27;47866;-61
2022/08/30 04:17:19;;;;;;;;;5.75;4.75;;;;;22.57;46.76;101115.59;2104975;28;47220;-62
2022/08/30 04:18:20;;;;;;;;;6.50;6.50;;;;;22.57;47.03;101106.63;2105350;27;47655;-63
2022/08/30 04:19:21;;;;;;;;;3.40;3.40;;;;;22.56;47.12;101094.94;2105684;27;47486;-63
2022/08/30 04:20:21;;;;;;;;;4.00;4.00;;;;;22.56;46.84;101097.63;2098844;27;47826;-61
2022/08/30 04:21:22;;;;;;;;;7.75;6.75;;;;;22.56;46.81;101094.06;2091503;28;47428;-62
2022/08/30 04:22:22;;;;;;;;;8.75;7.00;;;;;22.55;47.88;101095.91;2094568;28;47641;-62
2022/08/30 04:23:22;;;;;;;;;6.00;6.00;;;;;22.55;47.38;101105.84;2104204;27;46945;-63
2022/08/30 04:24:24;;;;;;;;;6.00;6.00;;;;;22.55;47.76;101095.03;2105640;27;46323;-62
2022/08/30 04:25:24;;;;;;;;;6.80;6.80;;;;;22.55;47.93;101093.19;2104562;28;48115;-62
2022/08/30 04:26:25;;;;;;;;;6.00;5.00;;;;;22.56;48.49;101094.06;2105546;27;47022;-60
2022/08/30 04:27:25;;;;;;;;;8.50;8.50;;;;;22.55;48.54;101089.63;2104884;27;47264;-62
2022/08/30 04:28:26;;;;;;;;;7.25;6.25;;;;;22.54;48.06;101088.75;2104301;27;47608;-62
2022/08/30 04:29:27;;;;;;;;;6.50;6.50;;;;;22.52;48.60;101085.28;2106988;27;46517;-62
2022/08/30 04:30:27;;;;;;;;;6.50;6.50;;;;;22.50;49.04;101086.34;2104402;27;47457;-63
2022/08/30 04:31:28;;;;;;;;;9.50;7.75;;;;;22.47;48.29;101084.69;2095891;28;47157;-62
2022/08/30 04:32:28;;;;;;;;;7.00;7.00;;;;;22.45;48.12;101091.19;2097339;28;48089;-62
2022/08/30 04:33:28;;;;;;;;;6.00;6.00;;;;;22.44;48.17;101087.59;2104543;28;47894;-63
2022/08/30 04:34:29;;;;;;;;;8.50;6.50;;;;;22.42;47.33;101089.56;2101225;27;47921;-63
2022/08/30 04:35:29;;;;;;;;;7.25;7.25;;;;;22.42;47.70;101081.44;2105255;27;47284;-62
2022/08/30 04:36:29;;;;;;;;;4.50;4.50;;;;;22.41;47.53;101090.53;2103950;27;47990;-62
2022/08/30 04:37:30;;;;;;;;;5.25;5.25;;;;;22.40;47.32;101090.63;2095458;28;47210;-63
2022/08/30 04:38:31;;;;;;;;;4.50;4.50;;;;;22.39;47.45;101094.31;2095463;28;47451;-62
2022/08/30 04:39:32;;;;;;;;;6.00;6.00;;;;;22.38;47.56;101092.56;2105728;27;47450;-61
2022/08/30 04:40:32;;;;;;;;;8.25;6.50;;;;;22.37;47.92;101102.53;2104627;27;47807;-62
2022/08/30 04:41:35;;;;;;;;;5.50;5.50;;;;;22.37;48.41;101102.53;2104741;28;47711;-62
2022/08/30 04:42:36;;;;;;;;;6.20;6.20;;;;;22.37;48.56;101107.06;2108015;27;48362;-62
2022/08/30 04:43:38;;;;;;;;;7.00;6.25;;;;;22.38;48.34;101109.66;2108786;27;47715;-62
2022/08/30 04:44:38;;;;;;;;;7.20;5.80;;;;;22.39;48.14;101111.41;2104521;27;47629;-62
2022/08/30 04:45:40;;;;;;;;;4.00;4.00;;;;;22.40;49.03;101113.13;2087279;28;47088;-62